Time;durP1;ratioP1;P1;durP2;ratioP2;P2;SDS_P1;SDS_P2;PMS_P1;PMS_P2;Temp;Humidity;BMP_temperature;BMP_pressure;BME280_temperature;BME280_humidity;BME280_pressure;Samples;Min_cycle;Max_cycle;Signal;HPM_P1;HPM_P2
2023/05/11 00:01:12;;;;;;;3.40;2.90;;;;;;;15.14;53.66;102328.95;110498;1268;22223;-49
2023/05/11 00:03:39;;;;;;;3.60;2.90;;;;;;;15.15;53.46;102334.17;110276;1274;22126;-49
2023/05/11 00:06:06;;;;;;;2.60;2.30;;;;;;;15.15;53.07;102337.48;110546;1268;22416;-49
2023/05/11 00:08:33;;;;;;;2.50;2.30;;;;;;;15.15;52.64;102336.63;110430;1268;22256;-49
2023/05/11 00:11:00;;;;;;;3.80;2.10;;;;;;;15.13;52.10;102337.35;110452;1268;22374;-50
2023/05/11 00:13:27;;;;;;;3.70;1.90;;;;;;;15.11;51.71;102336.33;109778;1268;1002345;-49
2023/05/11 00:15:55;;;;;;;2.70;2.00;;;;;;;15.10;51.47;102335.48;110545;1268;22564;-50
2023/05/11 00:18:22;;;;;;;2.00;1.80;;;;;;;15.07;51.23;102333.60;110472;1267;22257;-49
2023/05/11 00:20:49;;;;;;;1.90;1.80;;;;;;;15.03;51.50;102331.20;110333;1274;22431;-50
2023/05/11 00:23:16;;;;;;;3.30;2.10;;;;;;;15.00;51.63;102330.73;110363;1273;22092;-49
2023/05/11 00:25:43;;;;;;;2.70;2.10;;;;;;;14.97;51.50;102335.67;110276;1274;22219;-50
2023/05/11 00:28:10;;;;;;;2.50;2.20;;;;;;;14.95;51.63;102332.38;110515;1268;22463;-50
2023/05/11 00:30:39;;;;;;;3.40;2.10;;;;;;;14.95;51.69;102329.06;110272;1272;23138;-49
2023/05/11 00:33:06;;;;;;;5.50;2.40;;;;;;;14.95;51.87;102329.77;110507;1268;22711;-50
2023/05/11 00:35:33;;;;;;;3.50;2.70;;;;;;;14.94;51.93;102330.66;110535;1268;22119;-49
2023/05/11 00:38:00;;;;;;;3.00;2.50;;;;;;;14.92;51.89;102333.48;110435;1268;22362;-49
2023/05/11 00:40:27;;;;;;;3.90;2.10;;;;;;;14.90;51.95;102333.16;110540;1274;22381;-50
2023/05/11 00:42:54;;;;;;;8.90;8.00;;;;;;;14.89;51.90;102338.77;110586;1268;22357;-50
2023/05/11 00:45:21;;;;;;;5.20;4.70;;;;;;;14.86;52.22;102335.31;110439;1271;22440;-49
2023/05/11 00:47:48;;;;;;;3.20;2.90;;;;;;;14.84;52.70;102340.25;110421;1268;22495;-50
2023/05/11 00:50:17;;;;;;;2.10;1.90;;;;;;;14.81;53.44;102340.28;110447;1269;22131;-50
2023/05/11 00:52:45;;;;;;;2.70;2.20;;;;;;;14.77;53.75;102345.23;110430;1268;22499;-49
2023/05/11 00:55:12;;;;;;;2.10;1.90;;;;;;;14.76;53.50;102343.84;110487;1270;22406;-49
2023/05/11 00:57:39;;;;;;;2.10;1.90;;;;;;;14.76;52.89;102345.23;110522;1275;22274;-49
2023/05/11 01:00:07;;;;;;;2.50;1.80;;;;;;;14.78;52.60;102348.00;110456;1274;22845;-50
2023/05/11 01:02:34;;;;;;;2.90;1.80;;;;;;;14.78;52.56;102348.35;110571;1268;22275;-49
2023/05/11 01:05:01;;;;;;;2.40;1.60;;;;;;;14.80;52.52;102344.83;109661;1274;1002276;-49
2023/05/11 01:07:48;;;;;;;2.20;1.70;;;;;;;14.80;52.23;102346.39;110329;1275;22296;-49
2023/05/11 01:10:24;;;;;;;2.10;1.70;;;;;;;14.80;51.89;102345.01;110405;1268;22257;-50
2023/05/11 01:13:24;;;;;;;1.90;1.80;;;;;;;14.80;51.68;102346.40;110400;1275;22340;-49
2023/05/11 01:15:52;;;;;;;1.80;1.70;;;;;;;14.80;51.62;102342.73;110094;1273;22229;-50
2023/05/11 01:18:27;;;;;;;1.90;1.70;;;;;;;14.79;51.78;102339.96;109268;1273;1002511;-49
2023/05/11 01:21:00;;;;;;;1.80;1.60;;;;;;;14.77;51.94;102338.95;109232;1280;1003005;-50
2023/05/11 01:24:05;;;;;;;2.50;1.80;;;;;;;14.76;52.10;102337.55;109174;1273;1002540;-50
2023/05/11 01:26:36;;;;;;;3.00;1.80;;;;;;;14.78;52.14;102336.65;109961;1277;22195;-49
2023/05/11 01:29:30;;;;;;;2.50;1.80;;;;;;;14.79;52.03;102336.46;109177;1272;1002284;-50
2023/05/11 01:31:57;;;;;;;2.00;1.80;;;;;;;14.81;51.79;102337.66;110048;1280;22173;-51
2023/05/11 01:34:29;;;;;;;2.10;1.90;;;;;;;14.85;51.36;102336.55;109963;1280;22659;-50
2023/05/11 01:36:57;;;;;;;3.40;2.10;;;;;;;14.90;51.47;102338.58;109210;1277;1002205;-50
2023/05/11 01:39:29;;;;;;;1.90;1.70;;;;;;;14.92;51.41;102340.64;110048;1280;22182;-50
2023/05/11 01:41:56;;;;;;;4.90;1.80;;;;;;;14.97;50.94;102339.88;110033;1275;22837;-49
2023/05/11 01:44:24;;;;;;;1.70;1.60;;;;;;;14.95;50.89;102343.39;109961;1277;22942;-50
2023/05/11 01:46:51;;;;;;;2.90;2.10;;;;;;;14.98;50.68;102341.95;110075;1275;22165;-50
2023/05/11 01:49:18;;;;;;;2.80;1.90;;;;;;;14.99;50.33;102342.63;110007;1273;22320;-50
2023/05/11 01:51:48;;;;;;;2.50;2.00;;;;;;;14.99;50.27;102342.11;110068;1274;22273;-50
2023/05/11 01:54:16;;;;;;;4.70;4.10;;;;;;;15.00;50.59;102344.20;110429;1275;22397;-50
2023/05/11 01:56:43;;;;;;;4.30;3.80;;;;;;;14.99;51.44;102342.47;110487;1268;22328;-50
2023/05/11 01:59:10;;;;;;;5.80;4.30;;;;;;;14.97;52.01;102341.96;110320;1274;23508;-49
2023/05/11 02:01:37;;;;;;;7.00;4.90;;;;;;;14.94;52.42;102338.70;110446;1267;22431;-50
2023/05/11 02:04:04;;;;;;;5.40;4.80;;;;;;;14.92;52.72;102343.79;110498;1275;22392;-50
2023/05/11 02:06:31;;;;;;;6.20;5.20;;;;;;;14.88;53.03;102344.55;110321;1271;22746;-50
2023/05/11 02:08:58;;;;;;;6.10;4.10;;;;;;;14.85;53.03;102344.77;110321;1271;22356;-50
2023/05/11 02:11:25;;;;;;;5.40;4.10;;;;;;;14.81;52.95;102345.16;110254;1277;22411;-50
2023/05/11 02:13:55;;;;;;;4.20;3.90;;;;;;;14.78;52.76;102347.83;110069;1274;22182;-50
2023/05/11 02:16:21;;;;;;;6.70;5.50;;;;;;;14.73;52.32;102346.16;109925;1281;22365;-49
2023/05/11 02:18:49;;;;;;;6.50;5.00;;;;;;;14.66;51.67;102349.20;110028;1274;22388;-50
2023/05/11 02:21:16;;;;;;;6.80;4.70;;;;;;;14.60;51.20;102347.20;110010;1281;22173;-50
2023/05/11 02:23:45;;;;;;;5.20;4.70;;;;;;;14.51;51.13;102346.10;109699;1277;275204;-50
2023/05/11 02:26:12;;;;;;;6.10;5.10;;;;;;;14.42;51.07;102347.96;109984;1281;23461;-49
2023/05/11 02:28:39;;;;;;;5.10;4.60;;;;;;;14.32;51.15;102347.21;109982;1273;23077;-49
2023/05/11 02:31:15;;;;;;;5.30;4.80;;;;;;;14.21;51.47;102353.23;109997;1281;22306;-50
2023/05/11 02:33:43;;;;;;;7.50;4.80;;;;;;;14.11;51.78;102355.10;110000;1280;22127;-50
2023/05/11 02:36:13;;;;;;;5.80;4.80;;;;;;;14.03;52.29;102354.67;110085;1278;22132;-50
2023/05/11 02:38:40;;;;;;;6.00;5.50;;;;;;;13.96;52.81;102356.64;109927;1276;22171;-50
2023/05/11 02:41:10;;;;;;;5.80;5.20;;;;;;;13.92;53.22;102360.52;109101;1283;1002847;-50
2023/05/11 02:43:39;;;;;;;6.50;5.40;;;;;;;13.88;53.66;102360.21;109944;1281;22156;-50
2023/05/11 02:46:16;;;;;;;5.90;5.30;;;;;;;13.87;54.17;102364.77;109861;1277;22197;-50
2023/05/11 02:48:45;;;;;;;6.60;6.00;;;;;;;13.87;54.44;102365.46;109708;1279;23131;-50
2023/05/11 02:51:13;;;;;;;6.60;5.70;;;;;;;13.86;54.75;102365.65;109729;1279;22158;-50
2023/05/11 02:53:44;;;;;;;6.60;6.00;;;;;;;13.86;55.07;102365.48;109751;1276;22440;-50
2023/05/11 02:56:11;;;;;;;6.00;5.40;;;;;;;13.85;55.38;102367.23;109775;1280;22963;-50
2023/05/11 02:58:38;;;;;;;5.30;4.80;;;;;;;13.87;55.59;102370.02;109752;1285;22195;-51
2023/05/11 03:01:16;;;;;;;6.70;5.40;;;;;;;13.90;55.82;102373.29;109715;1285;22809;-50
2023/05/11 03:03:43;;;;;;;5.70;5.20;;;;;;;13.92;55.97;102374.82;109717;1285;22155;-50
2023/05/11 03:06:10;;;;;;;5.60;5.10;;;;;;;13.97;56.17;102372.70;109752;1278;22175;-49
2023/05/11 03:08:38;;;;;;;5.70;5.10;;;;;;;14.01;56.36;102373.70;109752;1279;22925;-52
2023/05/11 03:11:05;;;;;;;5.70;4.80;;;;;;;14.06;56.40;102376.09;110022;1276;22392;-50
2023/05/11 03:13:32;;;;;;;5.40;4.90;;;;;;;14.11;56.69;102377.62;109882;1281;22317;-49
2023/05/11 03:16:01;;;;;;;4.70;4.30;;;;;;;14.13;56.76;102380.55;109890;1281;22911;-52
2023/05/11 03:18:29;;;;;;;6.50;5.00;;;;;;;14.17;57.09;102378.92;110085;1274;23058;-50
2023/05/11 03:20:56;;;;;;;4.50;4.10;;;;;;;14.19;57.46;102381.71;110074;1276;22361;-50
2023/05/11 03:23:23;;;;;;;6.00;4.60;;;;;;;14.20;57.91;102379.44;110126;1277;22259;-50
2023/05/11 03:25:50;;;;;;;4.80;4.40;;;;;;;14.20;58.32;102385.18;110144;1273;22400;-50
2023/05/11 03:28:17;;;;;;;5.00;4.50;;;;;;;14.24;58.62;102382.52;110010;1277;22157;-51
2023/05/11 03:30:54;;;;;;;6.60;4.40;;;;;;;14.29;59.05;102383.19;110106;1273;23022;-50
2023/05/11 03:33:21;;;;;;;3.80;3.40;;;;;;;14.37;59.36;102385.56;110239;1273;22574;-51
2023/05/11 03:35:49;;;;;;;3.70;3.40;;;;;;;14.49;59.17;102389.42;110237;1275;23069;-50
2023/05/11 03:38:18;;;;;;;3.00;2.80;;;;;;;14.68;58.60;102394.42;110237;1274;22714;-50
2023/05/11 03:40:45;;;;;;;2.90;2.30;;;;;;;14.90;57.96;102395.72;110235;1267;23105;-50
2023/05/11 03:43:14;;;;;;;2.50;2.10;;;;;;;15.11;56.83;102398.91;110336;1269;23271;-50
2023/05/11 03:45:42;;;;;;;1.70;1.60;;;;;;;15.28;55.86;102400.77;110187;1271;22298;-49
2023/05/11 03:48:09;;;;;;;2.40;2.20;;;;;;;15.38;55.15;102403.39;110108;1267;22400;-48
2023/05/11 03:50:37;;;;;;;2.30;1.70;;;;;;;15.47;54.56;102402.05;110513;1271;23061;-48
2023/05/11 03:53:04;;;;;;;4.40;2.10;;;;;;;15.53;54.12;102403.20;110282;1276;22407;-49
2023/05/11 03:55:31;;;;;;;2.70;2.00;;;;;;;15.56;53.91;102405.25;110223;1271;22284;-48
2023/05/11 03:57:58;;;;;;;2.70;2.50;;;;;;;15.55;53.66;102405.45;110300;1271;22151;-49
2023/05/11 04:00:27;;;;;;;2.10;1.90;;;;;;;15.53;53.69;102409.84;110127;1274;22590;-49
2023/05/11 04:02:54;;;;;;;3.30;1.80;;;;;;;15.51;53.66;102410.75;110349;1270;22430;-48
2023/05/11 04:05:21;;;;;;;2.80;2.40;;;;;;;15.46;53.57;102412.39;110108;1265;22278;-49
2023/05/11 04:07:48;;;;;;;2.00;1.70;;;;;;;15.45;53.43;102415.05;110421;1275;22149;-49
2023/05/11 04:10:17;;;;;;;2.00;1.80;;;;;;;15.43;53.33;102416.12;110102;1274;22400;-50
2023/05/11 04:12:44;;;;;;;2.10;1.90;;;;;;;15.43;53.08;102415.41;110559;1274;22783;-50
2023/05/11 04:15:11;;;;;;;2.20;2.00;;;;;;;15.43;52.71;102418.73;110481;1272;22131;-49
2023/05/11 04:17:38;;;;;;;2.00;1.80;;;;;;;15.42;52.81;102421.36;110352;1266;22297;-50
2023/05/11 04:20:06;;;;;;;2.50;2.00;;;;;;;15.41;52.85;102422.05;110523;1272;22215;-49
2023/05/11 04:22:33;;;;;;;2.70;2.20;;;;;;;15.40;53.04;102424.52;110467;1270;22411;-49
2023/05/11 04:25:01;;;;;;;2.40;2.20;;;;;;;15.41;53.01;102430.81;110540;1273;22422;-50
2023/05/11 04:27:31;;;;;;;2.40;2.10;;;;;;;15.44;52.76;102436.02;110513;1267;22989;-50
2023/05/11 04:29:59;;;;;;;2.20;1.90;;;;;;;15.43;52.45;102436.05;110485;1274;23087;-50
2023/05/11 04:32:28;;;;;;;2.60;2.40;;;;;;;15.42;52.02;102439.38;110383;1269;22121;-50
2023/05/11 04:34:56;;;;;;;2.70;2.40;;;;;;;15.41;51.92;102442.88;110210;1276;22327;-49
2023/05/11 04:37:24;;;;;;;3.60;2.20;;;;;;;15.42;51.93;102445.69;110477;1274;23153;-50
2023/05/11 04:39:52;;;;;;;2.60;1.80;;;;;;;15.45;51.82;102443.55;110169;1273;22859;-50
2023/05/11 04:42:19;;;;;;;1.60;1.50;;;;;;;15.48;51.47;102448.39;110044;1278;22432;-50
2023/05/11 04:44:52;;;;;;;2.60;1.70;;;;;;;15.50;51.14;102444.70;110009;1273;22414;-50
2023/05/11 04:47:20;;;;;;;4.00;1.90;;;;;;;15.53;50.95;102450.26;110044;1270;22441;-50
2023/05/11 04:49:47;;;;;;;2.10;1.90;;;;;;;15.55;50.73;102448.98;110157;1278;22613;-49
2023/05/11 04:52:14;;;;;;;2.20;1.90;;;;;;;15.57;50.71;102448.60;110052;1276;22333;-49
2023/05/11 04:54:44;;;;;;;2.10;1.80;;;;;;;15.60;50.58;102449.95;110043;1276;22451;-50
2023/05/11 04:57:11;;;;;;;2.70;1.70;;;;;;;15.63;50.87;102449.55;110020;1276;23094;-49
2023/05/11 04:59:38;;;;;;;2.40;1.90;;;;;;;15.67;50.92;102447.92;110115;1272;22161;-50
2023/05/11 05:02:05;;;;;;;2.30;1.80;;;;;;;15.70;50.94;102445.78;109273;1278;1002462;-50
2023/05/11 05:04:32;;;;;;;2.00;1.80;;;;;;;15.70;51.07;102451.20;110086;1273;22359;-50
2023/05/11 05:07:03;;;;;;;4.70;1.70;;;;;;;15.72;51.37;102450.30;110085;1270;22424;-50
2023/05/11 05:09:30;;;;;;;2.70;1.90;;;;;;;15.76;51.47;102446.56;110130;1270;23251;-49
2023/05/11 05:11:57;;;;;;;2.50;2.10;;;;;;;15.81;51.35;102450.67;110481;1275;22291;-52
2023/05/11 05:14:24;;;;;;;3.00;1.70;;;;;;;15.83;51.42;102447.48;110322;1274;22374;-50
2023/05/11 05:16:53;;;;;;;2.00;1.80;;;;;;;15.87;51.64;102446.19;110548;1274;22119;-50
2023/05/11 05:19:20;;;;;;;2.30;1.80;;;;;;;15.92;51.70;102447.33;110414;1274;22119;-50
2023/05/11 05:21:48;;;;;;;2.50;1.90;;;;;;;16.00;51.80;102449.45;109660;1274;1002343;-50
2023/05/11 05:24:15;;;;;;;2.60;1.90;;;;;;;16.07;51.78;102450.90;110240;1275;22424;-50
2023/05/11 05:26:42;;;;;;;2.40;1.70;;;;;;;16.27;51.82;102448.64;110456;1270;22340;-51
2023/05/11 05:29:10;;;;;;;1.70;1.60;;;;;;;16.65;51.42;102451.08;110227;1274;22509;-50
2023/05/11 05:31:38;;;;;;;1.70;1.60;;;;;;;17.13;50.50;102452.69;110307;1276;22168;-50
2023/05/11 05:34:05;;;;;;;2.70;1.70;;;;;;;17.67;49.26;102453.19;110216;1270;22316;-50
2023/05/11 05:36:33;;;;;;;2.00;1.70;;;;;;;18.29;48.04;102453.35;110271;1276;22299;-49
2023/05/11 05:39:02;;;;;;;2.70;1.80;;;;;;;18.92;46.22;102451.79;110281;1277;22324;-50
2023/05/11 05:41:30;;;;;;;2.10;1.70;;;;;;;19.52;44.73;102450.10;110161;1276;22239;-50
2023/05/11 05:43:57;;;;;;;1.80;1.70;;;;;;;20.07;43.40;102449.87;110007;1276;22139;-50
2023/05/11 05:46:24;;;;;;;1.90;1.70;;;;;;;20.54;42.24;102447.34;110429;1270;22407;-50
2023/05/11 05:48:51;;;;;;;1.60;1.50;;;;;;;20.90;41.12;102449.14;110364;1272;22150;-50
2023/05/11 05:51:18;;;;;;;2.70;1.70;;;;;;;21.30;40.64;102453.08;109498;1276;1002101;-50
2023/05/11 05:53:45;;;;;;;1.60;1.50;;;;;;;21.77;39.66;102451.88;110115;1273;22169;-51
2023/05/11 05:56:13;;;;;;;2.70;1.70;;;;;;;22.21;38.89;102444.54;110308;1275;22940;-51
2023/05/11 05:58:40;;;;;;;1.60;1.50;;;;;;;22.60;37.88;102442.08;110304;1276;22137;-50
2023/05/11 06:01:07;;;;;;;3.50;1.90;;;;;;;22.87;37.06;102440.34;110333;1273;22588;-50
2023/05/11 06:03:34;;;;;;;2.10;1.70;;;;;;;23.12;36.42;102442.48;110486;1273;22316;-51
2023/05/11 06:06:02;;;;;;;1.80;1.60;;;;;;;23.28;35.52;102441.15;110455;1272;23067;-48
2023/05/11 06:08:29;;;;;;;2.60;1.50;;;;;;;23.25;35.04;102441.33;110228;1273;22574;-50
2023/05/11 06:15:00;;;;;;;1.60;1.40;;;;;;;22.23;36.57;102444.39;105419;1288;559432;-49
2023/05/11 06:17:29;;;;;;;1.70;1.40;;;;;;;22.74;35.04;102442.19;106249;1282;24235;-49
2023/05/11 06:19:56;;;;;;;1.80;1.60;;;;;;;22.73;35.25;102442.91;106156;1284;25373;-50
2023/05/11 06:22:25;;;;;;;3.40;1.50;;;;;;;22.56;35.41;102444.19;106233;1280;25424;-50
2023/05/11 06:24:53;;;;;;;1.40;1.30;;;;;;;22.33;35.47;102445.40;106258;1282;22643;-50
2023/05/11 06:27:20;;;;;;;1.40;1.30;;;;;;;22.17;35.50;102445.59;105791;1285;238374;-49
2023/05/11 06:29:48;;;;;;;1.50;1.40;;;;;;;22.06;35.77;102446.23;106737;1273;25427;-50
2023/05/11 06:32:16;;;;;;;2.00;1.70;;;;;;;21.97;35.89;102448.41;106658;1273;25485;-49
2023/05/11 06:34:43;;;;;;;1.90;1.60;;;;;;;21.83;36.01;102448.80;106523;1280;22546;-49
2023/05/11 06:41:31;;;;;;;2.10;1.50;;;;;;;21.28;37.51;102449.58;104675;1295;557573;-51
2023/05/11 06:43:59;;;;;;;1.50;1.40;;;;;;;21.83;36.75;102447.90;106094;1282;25529;-51
2023/05/11 06:46:28;;;;;;;1.50;1.40;;;;;;;21.91;36.27;102451.30;105934;1285;25351;-51
2023/05/11 06:48:56;;;;;;;1.80;1.60;;;;;;;21.93;35.76;102453.70;106289;1280;22668;-51
2023/05/11 06:51:23;;;;;;;2.20;1.40;;;;;;;21.98;35.89;102453.48;106308;1280;25412;-51
2023/05/11 06:53:50;;;;;;;2.50;1.50;;;;;;;22.04;35.75;102455.50;106007;1280;438116;-51
2023/05/11 06:56:18;;;;;;;1.60;1.50;;;;;;;22.10;35.57;102457.73;106369;1279;22609;-51
2023/05/11 06:58:45;;;;;;;2.40;2.20;;;;;;;22.21;35.51;102457.77;106957;1279;25500;-51
2023/05/11 07:01:12;;;;;;;3.20;1.90;;;;;;;22.35;35.44;102453.77;106540;1280;25372;-52
2023/05/11 07:03:39;;;;;;;2.50;2.30;;;;;;;22.58;35.72;102445.84;106030;1279;26625;-51
2023/05/11 07:06:07;;;;;;;1.90;1.70;;;;;;;22.95;35.11;102451.11;106341;1285;22646;-52
2023/05/11 07:08:34;;;;;;;2.40;1.50;;;;;;;23.31;34.07;102455.24;105473;1281;1003426;-53
2023/05/11 07:11:01;;;;;;;2.50;2.10;;;;;;;23.68;33.11;102456.59;106298;1282;25414;-51
2023/05/11 07:13:29;;;;;;;1.80;1.70;;;;;;;23.93;32.57;102459.55;106287;1282;25350;-52
2023/05/11 07:15:56;;;;;;;2.00;1.70;;;;;;;24.21;31.99;102461.54;106338;1279;25490;-52
2023/05/11 07:18:24;;;;;;;2.70;2.00;;;;;;;24.53;31.28;102464.11;106355;1277;25346;-52
2023/05/11 07:20:51;;;;;;;2.00;1.80;;;;;;;24.84;30.93;102466.72;106374;1278;25424;-53
2023/05/11 07:23:18;;;;;;;2.20;1.80;;;;;;;25.13;30.37;102469.38;106419;1279;25334;-53
2023/05/11 07:25:45;;;;;;;1.90;1.70;;;;;;;25.40;30.01;102472.08;106688;1285;26521;-52
2023/05/11 07:28:12;;;;;;;3.30;2.20;;;;;;;25.59;30.07;102476.85;106138;1285;25378;-53
2023/05/11 07:30:40;;;;;;;3.70;2.10;;;;;;;25.71;29.59;102477.40;106186;1276;22553;-52
2023/05/11 07:33:07;;;;;;;4.30;2.20;;;;;;;25.76;29.35;102477.09;106296;1285;22645;-53
2023/05/11 07:35:34;;;;;;;3.00;2.70;;;;;;;25.71;29.57;102476.67;106389;1263;25491;-53
2023/05/11 07:38:02;;;;;;;2.90;2.60;;;;;;;25.54;29.77;102476.98;106381;1279;23916;-52
2023/05/11 07:40:29;;;;;;;2.50;2.20;;;;;;;25.29;30.34;102471.48;106262;1282;25474;-52
2023/05/11 07:42:57;;;;;;;4.00;2.90;;;;;;;25.05;30.55;102475.30;106206;1273;26619;-51
2023/05/11 07:45:24;;;;;;;4.00;3.00;;;;;;;24.82;30.58;102472.69;106035;1282;25497;-52
2023/05/11 07:47:51;;;;;;;5.40;2.50;;;;;;;24.56;31.03;102467.48;106684;1272;26303;-52
2023/05/11 07:50:18;;;;;;;5.60;2.90;;;;;;;24.32;31.49;102472.33;106765;1273;23321;-52
2023/05/11 07:52:46;;;;;;;2.60;2.40;;;;;;;24.04;32.11;102474.13;106884;1272;25399;-52
2023/05/11 07:55:13;;;;;;;5.10;3.00;;;;;;;23.78;32.86;102477.16;107020;1263;25344;-52
2023/05/11 07:57:41;;;;;;;3.80;2.90;;;;;;;23.58;33.06;102475.02;107102;1271;25493;-52
2023/05/11 08:00:09;;;;;;;3.60;2.80;;;;;;;23.40;33.10;102476.40;106853;1266;25383;-52
2023/05/11 08:02:40;;;;;;;2.90;2.60;;;;;;;23.22;33.05;102476.20;107121;1268;22663;-52
2023/05/11 08:05:08;;;;;;;4.20;2.60;;;;;;;23.02;33.83;102476.59;106772;1273;25452;-52
2023/05/11 08:07:36;;;;;;;3.10;2.80;;;;;;;22.86;33.73;102474.70;106804;1271;25328;-52
2023/05/11 08:10:06;;;;;;;3.90;2.70;;;;;;;22.70;34.53;102475.44;106701;1272;22552;-52
2023/05/11 08:12:35;;;;;;;3.50;2.80;;;;;;;22.54;34.72;102473.62;104380;1270;1003303;-54
2023/05/11 08:15:04;;;;;;;4.70;3.50;;;;;;;22.36;35.03;102476.21;106978;1266;22527;-51
2023/05/11 08:17:31;;;;;;;4.00;3.10;;;;;;;22.21;35.69;102479.17;106734;1276;24023;-51
2023/05/11 08:19:58;;;;;;;4.20;3.30;;;;;;;22.08;36.10;102480.09;107156;1269;25375;-52
2023/05/11 08:22:25;;;;;;;3.20;2.90;;;;;;;21.93;36.64;102479.33;106922;1269;24275;-51
2023/05/11 08:24:52;;;;;;;3.50;3.20;;;;;;;21.81;37.03;102478.91;106965;1270;25494;-51
2023/05/11 08:27:20;;;;;;;3.70;3.30;;;;;;;21.72;37.37;102482.30;106774;1263;22535;-51
2023/05/11 08:29:47;;;;;;;3.60;3.20;;;;;;;21.62;37.93;102486.23;106908;1273;24261;-52
2023/05/11 08:32:14;;;;;;;3.00;2.70;;;;;;;21.51;38.31;102480.29;106744;1275;25345;-51
2023/05/11 08:34:41;;;;;;;5.10;2.90;;;;;;;21.40;38.32;102478.66;106288;1272;1003107;-51
2023/05/11 08:37:09;;;;;;;4.50;3.40;;;;;;;21.32;38.48;102477.39;106719;1275;25412;-51
2023/05/11 08:39:36;;;;;;;6.20;3.40;;;;;;;21.23;39.17;102479.85;106844;1270;22551;-52
2023/05/11 08:42:17;;;;;;;3.30;3.00;;;;;;;21.13;39.47;102480.40;106870;1270;25436;-53
2023/05/11 08:44:44;;;;;;;3.50;3.10;;;;;;;21.02;39.64;102479.73;106757;1273;25346;-52
2023/05/11 08:47:11;;;;;;;3.40;3.10;;;;;;;20.92;39.94;102482.41;106718;1275;25369;-52
2023/05/11 08:49:42;;;;;;;3.20;2.80;;;;;;;20.91;40.11;102477.33;106780;1275;25389;-51
2023/05/11 08:52:09;;;;;;;6.60;3.40;;;;;;;20.88;39.91;102475.70;106834;1270;25491;-51
2023/05/11 08:54:36;;;;;;;3.20;2.90;;;;;;;20.85;40.30;102471.89;106791;1270;25919;-52
2023/05/11 08:57:03;;;;;;;4.50;2.70;;;;;;;20.84;40.32;102473.17;106830;1272;25493;-52
2023/05/11 08:59:32;;;;;;;3.90;2.80;;;;;;;20.83;40.32;102471.64;106785;1272;25368;-51
2023/05/11 09:02:00;;;;;;;3.10;2.70;;;;;;;20.83;40.15;102472.00;106849;1272;25402;-51
2023/05/11 09:04:26;;;;;;;2.60;2.40;;;;;;;20.84;40.36;102469.83;106812;1270;22523;-51
2023/05/11 09:06:54;;;;;;;2.60;2.40;;;;;;;20.85;39.68;102470.31;106573;1270;25539;-52
2023/05/11 09:09:22;;;;;;;2.50;2.00;;;;;;;20.85;39.79;102467.34;106849;1270;22524;-52
2023/05/11 09:11:49;;;;;;;2.40;2.20;;;;;;;20.85;39.76;102468.75;106716;1276;22522;-51
2023/05/11 09:14:16;;;;;;;5.10;2.40;;;;;;;20.84;39.27;102471.41;106741;1270;22543;-51
2023/05/11 09:16:44;;;;;;;2.10;1.80;;;;;;;20.85;39.18;102475.98;106119;1270;1003080;-51
2023/05/11 09:19:13;;;;;;;3.30;2.20;;;;;;;20.86;39.78;102473.28;106834;1276;25396;-51
2023/05/11 09:21:40;;;;;;;2.10;1.90;;;;;;;20.86;39.47;102472.57;106796;1270;25248;-51
2023/05/11 09:24:10;;;;;;;2.20;2.00;;;;;;;20.84;38.94;102470.70;106849;1273;25411;-51
2023/05/11 09:26:37;;;;;;;2.30;2.10;;;;;;;20.82;38.71;102471.14;106861;1270;25359;-52
2023/05/11 09:29:04;;;;;;;2.70;1.80;;;;;;;20.77;39.56;102471.48;106830;1273;25513;-52
2023/05/11 09:31:41;;;;;;;3.80;2.20;;;;;;;20.74;39.60;102470.91;106509;1275;25442;-51
2023/05/11 09:34:11;;;;;;;2.00;1.80;;;;;;;20.71;38.94;102470.86;106925;1273;26507;-51
2023/05/11 09:36:43;;;;;;;2.70;2.20;;;;;;;20.67;39.34;102471.52;106878;1270;22544;-51
2023/05/11 09:39:10;;;;;;;3.40;2.10;;;;;;;20.63;39.81;102469.91;106770;1270;25482;-51
2023/05/11 09:41:42;;;;;;;3.10;2.00;;;;;;;20.61;40.40;102471.22;106786;1273;25341;-52
2023/05/11 09:44:10;;;;;;;2.90;2.30;;;;;;;20.61;39.54;102468.92;106774;1271;25522;-52
2023/05/11 09:46:42;;;;;;;2.40;2.20;;;;;;;20.60;40.01;102465.07;106773;1257;27748;-52
2023/05/11 09:49:10;;;;;;;2.80;2.00;;;;;;;20.60;40.13;102460.69;106855;1270;25420;-52
2023/05/11 09:51:39;;;;;;;2.10;1.90;;;;;;;20.61;39.95;102457.45;106775;1270;25526;-52
2023/05/11 09:54:17;;;;;;;2.50;1.90;;;;;;;20.65;40.08;102456.80;106828;1270;22534;-52
2023/05/11 09:56:57;;;;;;;2.50;1.80;;;;;;;20.67;38.61;102454.44;106893;1270;22518;-52
2023/05/11 09:59:50;;;;;;;3.10;2.00;;;;;;;20.66;38.14;102454.62;107093;1267;25571;-52
2023/05/11 10:02:18;;;;;;;1.80;1.70;;;;;;;20.63;38.70;102451.39;106457;1275;25437;-52
2023/05/11 10:04:46;;;;;;;1.90;1.70;;;;;;;20.59;38.30;102449.42;106529;1275;22537;-52
2023/05/11 10:07:29;;;;;;;1.80;1.50;;;;;;;20.54;37.72;102445.55;106454;1274;25527;-52
2023/05/11 10:10:07;;;;;;;3.30;1.70;;;;;;;20.54;37.47;102449.79;106519;1275;25379;-52
2023/05/11 10:12:37;;;;;;;1.80;1.70;;;;;;;20.54;37.49;102446.09;106482;1275;22580;-52
2023/05/11 10:15:08;;;;;;;1.60;1.40;;;;;;;20.56;37.73;102442.69;106438;1275;22553;-52
2023/05/11 10:17:35;;;;;;;1.90;1.50;;;;;;;20.59;37.20;102442.37;106424;1274;22672;-52
2023/05/11 10:20:04;;;;;;;1.80;1.70;;;;;;;20.53;37.23;102440.48;106454;1275;25373;-52
2023/05/11 10:22:31;;;;;;;1.70;1.60;;;;;;;20.52;37.56;102442.47;106493;1275;22726;-52
2023/05/11 10:24:58;;;;;;;2.20;1.60;;;;;;;20.54;37.99;102440.09;106532;1275;25620;-52
2023/05/11 10:27:26;;;;;;;2.30;1.70;;;;;;;20.54;38.53;102437.09;106429;1278;25444;-51
2023/05/11 10:29:53;;;;;;;1.40;1.30;;;;;;;20.54;38.35;102439.04;106459;1275;25415;-51
2023/05/11 10:32:21;;;;;;;1.70;1.60;;;;;;;20.56;37.67;102439.86;106375;1276;25538;-52
2023/05/11 10:34:51;;;;;;;2.60;1.50;;;;;;;20.59;37.44;102440.27;106516;1275;25389;-51
2023/05/11 10:37:19;;;;;;;3.10;1.80;;;;;;;20.60;37.11;102439.72;106555;1275;25422;-51
2023/05/11 10:39:48;;;;;;;1.90;1.70;;;;;;;20.61;37.16;102439.13;106838;1267;24213;-51
2023/05/11 10:42:29;;;;;;;3.50;1.50;;;;;;;20.63;37.62;102439.75;107162;1267;22522;-51
2023/05/11 10:45:12;;;;;;;3.30;1.60;;;;;;;20.63;37.90;102435.16;107168;1250;23268;-51
2023/05/11 10:48:11;;;;;;;1.70;1.50;;;;;;;20.63;37.95;102435.88;107096;1267;26895;-52
2023/05/11 10:50:58;;;;;;;3.20;2.20;;;;;;;20.64;37.67;102436.92;107095;1267;25453;-51
2023/05/11 10:53:44;;;;;;;1.50;1.40;;;;;;;20.62;37.78;102437.30;107114;1267;25414;-51
2023/05/11 10:56:25;;;;;;;2.70;1.60;;;;;;;20.64;38.03;102435.66;107118;1267;24063;-51
2023/05/11 10:59:11;;;;;;;1.70;1.60;;;;;;;20.66;37.90;102429.27;107187;1266;24243;-52
2023/05/11 11:01:39;;;;;;;1.90;1.70;;;;;;;20.68;37.70;102428.09;105989;1272;1002822;-52
2023/05/11 11:04:07;;;;;;;2.10;1.90;;;;;;;20.70;37.97;102427.67;106991;1266;22523;-52
2023/05/11 11:06:39;;;;;;;2.20;1.50;;;;;;;20.71;37.51;102426.07;106927;1266;25365;-51
2023/05/11 11:09:10;;;;;;;2.20;1.60;;;;;;;20.73;37.08;102426.69;106653;1274;25340;-52
2023/05/11 11:11:38;;;;;;;2.40;1.70;;;;;;;20.74;37.16;102429.65;106582;1273;22740;-52
2023/05/11 11:14:08;;;;;;;3.50;2.00;;;;;;;20.72;37.29;102433.42;106836;1266;25450;-52
2023/05/11 11:16:36;;;;;;;1.50;1.20;;;;;;;20.74;36.98;102432.62;106823;1267;26606;-51
2023/05/11 11:19:29;;;;;;;1.70;1.60;;;;;;;20.76;37.15;102429.75;106821;1266;25440;-51
2023/05/11 11:21:57;;;;;;;2.50;1.80;;;;;;;20.75;36.90;102429.79;107570;1252;25360;-52
2023/05/11 11:24:37;;;;;;;3.40;1.60;;;;;;;20.76;36.72;102430.44;107197;1267;22513;-52
2023/05/11 11:27:05;;;;;;;2.70;1.90;;;;;;;20.76;36.68;102429.77;107135;1267;25369;-52
2023/05/11 11:29:36;;;;;;;1.80;1.40;;;;;;;20.75;36.92;102429.61;107389;1260;22528;-52
2023/05/11 11:32:19;;;;;;;1.70;1.60;;;;;;;20.75;37.11;102427.30;107091;1266;25485;-51
2023/05/11 11:34:48;;;;;;;4.00;1.60;;;;;;;20.78;37.25;102429.82;106653;1271;22593;-51